sensor_id;sensor_type;location;lat;lon;timestamp;P1;durP1;ratioP1;P2;durP2;ratioP2
6269;SDS011;3168;51.684;6.954;2023-07-20T00:00:37;4.57;;;4.37;;
6269;SDS011;3168;51.684;6.954;2023-07-20T00:03:10;3.60;;;3.50;;
6269;SDS011;3168;51.684;6.954;2023-07-20T00:05:35;3.87;;;3.57;;
6269;SDS011;3168;51.684;6.954;2023-07-20T00:10:45;4.10;;;3.90;;
6269;SDS011;3168;51.684;6.954;2023-07-20T00:13:11;14.60;;;4.60;;
6269;SDS011;3168;51.684;6.954;2023-07-20T00:15:37;3.93;;;3.73;;
6269;SDS011;3168;51.684;6.954;2023-07-20T00:18:04;3.33;;;3.13;;
6269;SDS011;3168;51.684;6.954;2023-07-20T00:20:29;4.17;;;3.73;;
6269;SDS011;3168;51.684;6.954;2023-07-20T00:22:55;4.50;;;4.20;;
6269;SDS011;3168;51.684;6.954;2023-07-20T00:25:21;8.10;;;4.70;;
6269;SDS011;3168;51.684;6.954;2023-07-20T00:27:46;4.30;;;4.10;;
6269;SDS011;3168;51.684;6.954;2023-07-20T00:30:12;3.83;;;3.63;;
6269;SDS011;3168;51.684;6.954;2023-07-20T00:32:38;4.60;;;4.40;;
6269;SDS011;3168;51.684;6.954;2023-07-20T00:35:04;4.00;;;3.80;;
6269;SDS011;3168;51.684;6.954;2023-07-20T00:37:31;3.50;;;3.30;;
6269;SDS011;3168;51.684;6.954;2023-07-20T00:39:56;6.03;;;3.83;;
6269;SDS011;3168;51.684;6.954;2023-07-20T00:42:22;5.87;;;4.97;;
6269;SDS011;3168;51.684;6.954;2023-07-20T00:44:48;4.03;;;3.63;;
6269;SDS011;3168;51.684;6.954;2023-07-20T00:47:13;3.97;;;3.77;;
6269;SDS011;3168;51.684;6.954;2023-07-20T00:49:39;9.03;;;3.97;;
6269;SDS011;3168;51.684;6.954;2023-07-20T00:52:06;3.63;;;3.47;;
6269;SDS011;3168;51.684;6.954;2023-07-20T00:54:33;3.60;;;3.30;;
6269;SDS011;3168;51.684;6.954;2023-07-20T00:56:58;14.73;;;4.83;;
6269;SDS011;3168;51.684;6.954;2023-07-20T01:02:09;6.20;;;4.47;;
6269;SDS011;3168;51.684;6.954;2023-07-20T01:04:34;5.30;;;4.90;;
6269;SDS011;3168;51.684;6.954;2023-07-20T01:07:01;3.67;;;3.37;;
6269;SDS011;3168;51.684;6.954;2023-07-20T01:09:28;3.33;;;2.93;;
6269;SDS011;3168;51.684;6.954;2023-07-20T01:11:57;3.50;;;3.40;;
6269;SDS011;3168;51.684;6.954;2023-07-20T01:14:23;3.17;;;3.07;;
6269;SDS011;3168;51.684;6.954;2023-07-20T01:16:48;4.97;;;4.57;;
6269;SDS011;3168;51.684;6.954;2023-07-20T01:19:14;5.80;;;5.30;;
6269;SDS011;3168;51.684;6.954;2023-07-20T01:21:44;3.80;;;3.63;;
6269;SDS011;3168;51.684;6.954;2023-07-20T01:27:04;4.43;;;4.23;;
6269;SDS011;3168;51.684;6.954;2023-07-20T01:29:34;4.43;;;4.13;;
6269;SDS011;3168;51.684;6.954;2023-07-20T01:31:57;5.23;;;4.33;;
6269;SDS011;3168;51.684;6.954;2023-07-20T01:34:23;4.83;;;4.00;;
6269;SDS011;3168;51.684;6.954;2023-07-20T01:36:49;3.97;;;3.67;;
6269;SDS011;3168;51.684;6.954;2023-07-20T01:39:15;4.80;;;4.50;;
6269;SDS011;3168;51.684;6.954;2023-07-20T01:41:40;5.20;;;4.80;;
6269;SDS011;3168;51.684;6.954;2023-07-20T01:44:06;5.80;;;5.40;;
6269;SDS011;3168;51.684;6.954;2023-07-20T01:46:32;4.77;;;4.47;;
6269;SDS011;3168;51.684;6.954;2023-07-20T01:48:58;5.57;;;5.17;;
6269;SDS011;3168;51.684;6.954;2023-07-20T01:51:24;5.40;;;5.13;;
6269;SDS011;3168;51.684;6.954;2023-07-20T01:53:49;6.10;;;5.63;;
6269;SDS011;3168;51.684;6.954;2023-07-20T01:56:15;3.70;;;3.50;;
6269;SDS011;3168;51.684;6.954;2023-07-20T01:58:41;4.80;;;4.60;;
6269;SDS011;3168;51.684;6.954;2023-07-20T02:01:07;5.90;;;5.27;;
6269;SDS011;3168;51.684;6.954;2023-07-20T02:03:32;5.47;;;5.07;;
6269;SDS011;3168;51.684;6.954;2023-07-20T02:05:58;4.67;;;4.37;;
6269;SDS011;3168;51.684;6.954;2023-07-20T02:08:24;4.57;;;4.20;;
6269;SDS011;3168;51.684;6.954;2023-07-20T02:10:50;6.07;;;5.77;;
6269;SDS011;3168;51.684;6.954;2023-07-20T02:13:16;5.73;;;5.37;;
6269;SDS011;3168;51.684;6.954;2023-07-20T02:15:41;4.90;;;4.60;;
6269;SDS011;3168;51.684;6.954;2023-07-20T02:18:07;6.00;;;5.60;;
6269;SDS011;3168;51.684;6.954;2023-07-20T02:20:34;6.27;;;5.83;;
6269;SDS011;3168;51.684;6.954;2023-07-20T02:22:59;8.03;;;5.50;;
6269;SDS011;3168;51.684;6.954;2023-07-20T02:25:25;4.80;;;4.60;;
6269;SDS011;3168;51.684;6.954;2023-07-20T02:27:51;5.90;;;5.60;;
6269;SDS011;3168;51.684;6.954;2023-07-20T02:30:17;7.00;;;6.40;;
6269;SDS011;3168;51.684;6.954;2023-07-20T02:32:43;5.33;;;5.07;;
6269;SDS011;3168;51.684;6.954;2023-07-20T02:35:12;6.73;;;6.13;;
6269;SDS011;3168;51.684;6.954;2023-07-20T02:37:37;6.37;;;5.80;;
6269;SDS011;3168;51.684;6.954;2023-07-20T02:40:04;6.73;;;6.23;;
6269;SDS011;3168;51.684;6.954;2023-07-20T02:42:30;6.27;;;5.80;;
6269;SDS011;3168;51.684;6.954;2023-07-20T02:44:56;6.60;;;6.00;;
6269;SDS011;3168;51.684;6.954;2023-07-20T02:47:22;6.70;;;6.13;;
6269;SDS011;3168;51.684;6.954;2023-07-20T02:49:48;10.00;;;7.40;;
6269;SDS011;3168;51.684;6.954;2023-07-20T02:52:13;8.33;;;7.20;;
6269;SDS011;3168;51.684;6.954;2023-07-20T02:54:39;9.40;;;8.00;;
6269;SDS011;3168;51.684;6.954;2023-07-20T02:57:05;12.30;;;7.27;;
6269;SDS011;3168;51.684;6.954;2023-07-20T02:59:31;7.53;;;6.73;;
6269;SDS011;3168;51.684;6.954;2023-07-20T03:01:57;10.13;;;9.23;;
6269;SDS011;3168;51.684;6.954;2023-07-20T03:04:23;10.83;;;7.73;;
6269;SDS011;3168;51.684;6.954;2023-07-20T03:06:48;22.03;;;9.50;;
6269;SDS011;3168;51.684;6.954;2023-07-20T03:09:14;14.60;;;8.03;;
6269;SDS011;3168;51.684;6.954;2023-07-20T03:11:40;8.77;;;7.93;;
6269;SDS011;3168;51.684;6.954;2023-07-20T03:14:06;8.90;;;8.00;;
6269;SDS011;3168;51.684;6.954;2023-07-20T03:16:31;10.63;;;8.20;;
6269;SDS011;3168;51.684;6.954;2023-07-20T03:18:57;11.70;;;8.97;;
6269;SDS011;3168;51.684;6.954;2023-07-20T03:21:23;9.90;;;8.90;;
6269;SDS011;3168;51.684;6.954;2023-07-20T03:23:49;9.70;;;8.70;;
6269;SDS011;3168;51.684;6.954;2023-07-20T03:26:15;9.40;;;8.50;;
6269;SDS011;3168;51.684;6.954;2023-07-20T03:28:41;10.43;;;9.03;;
6269;SDS011;3168;51.684;6.954;2023-07-20T03:31:06;10.93;;;9.70;;
6269;SDS011;3168;51.684;6.954;2023-07-20T03:33:33;11.80;;;8.77;;
6269;SDS011;3168;51.684;6.954;2023-07-20T03:35:59;9.07;;;7.93;;
6269;SDS011;3168;51.684;6.954;2023-07-20T03:38:25;9.60;;;8.07;;
6269;SDS011;3168;51.684;6.954;2023-07-20T03:40:51;9.10;;;8.20;;
6269;SDS011;3168;51.684;6.954;2023-07-20T03:43:16;9.83;;;8.57;;
6269;SDS011;3168;51.684;6.954;2023-07-20T03:45:42;10.63;;;8.73;;
6269;SDS011;3168;51.684;6.954;2023-07-20T03:48:08;11.60;;;9.50;;
6269;SDS011;3168;51.684;6.954;2023-07-20T03:50:34;10.10;;;8.27;;
6269;SDS011;3168;51.684;6.954;2023-07-20T03:52:59;10.80;;;9.47;;
6269;SDS011;3168;51.684;6.954;2023-07-20T03:55:26;12.67;;;7.67;;
6269;SDS011;3168;51.684;6.954;2023-07-20T03:57:52;16.10;;;9.40;;
6269;SDS011;3168;51.684;6.954;2023-07-20T04:00:18;11.03;;;9.73;;
6269;SDS011;3168;51.684;6.954;2023-07-20T04:02:44;13.30;;;9.43;;
6269;SDS011;3168;51.684;6.954;2023-07-20T04:05:09;12.50;;;8.17;;
6269;SDS011;3168;51.684;6.954;2023-07-20T04:07:36;13.73;;;9.70;;
6269;SDS011;3168;51.684;6.954;2023-07-20T04:10:02;12.20;;;9.57;;
6269;SDS011;3168;51.684;6.954;2023-07-20T04:12:28;8.53;;;7.70;;
6269;SDS011;3168;51.684;6.954;2023-07-20T04:14:53;11.00;;;9.93;;
6269;SDS011;3168;51.684;6.954;2023-07-20T04:17:19;10.33;;;9.17;;
6269;SDS011;3168;51.684;6.954;2023-07-20T04:19:45;9.43;;;8.40;;
6269;SDS011;3168;51.684;6.954;2023-07-20T04:22:11;10.13;;;8.97;;
6269;SDS011;3168;51.684;6.954;2023-07-20T04:24:36;8.30;;;7.47;;
6269;SDS011;3168;51.684;6.954;2023-07-20T04:27:02;13.80;;;8.63;;
6269;SDS011;3168;51.684;6.954;2023-07-20T04:29:28;10.70;;;8.40;;
6269;SDS011;3168;51.684;6.954;2023-07-20T04:31:54;8.23;;;7.43;;
6269;SDS011;3168;51.684;6.954;2023-07-20T04:34:20;9.07;;;8.00;;
6269;SDS011;3168;51.684;6.954;2023-07-20T04:36:46;9.53;;;8.67;;
6269;SDS011;3168;51.684;6.954;2023-07-20T04:39:11;9.33;;;8.53;;
6269;SDS011;3168;51.684;6.954;2023-07-20T04:41:37;8.00;;;7.10;;
6269;SDS011;3168;51.684;6.954;2023-07-20T04:44:03;8.43;;;7.53;;
6269;SDS011;3168;51.684;6.954;2023-07-20T04:46:29;7.73;;;7.10;;
6269;SDS011;3168;51.684;6.954;2023-07-20T04:48:55;7.70;;;7.10;;
6269;SDS011;3168;51.684;6.954;2023-07-20T04:51:20;7.93;;;7.23;;
6269;SDS011;3168;51.684;6.954;2023-07-20T04:53:47;10.23;;;8.90;;
6269;SDS011;3168;51.684;6.954;2023-07-20T04:56:12;9.87;;;8.07;;
6269;SDS011;3168;51.684;6.954;2023-07-20T04:58:38;8.30;;;6.87;;
6269;SDS011;3168;51.684;6.954;2023-07-20T05:01:04;15.63;;;7.53;;
6269;SDS011;3168;51.684;6.954;2023-07-20T05:03:30;6.73;;;6.10;;
6269;SDS011;3168;51.684;6.954;2023-07-20T05:05:57;8.63;;;7.83;;
6269;SDS011;3168;51.684;6.954;2023-07-20T05:08:21;7.07;;;6.37;;
6269;SDS011;3168;51.684;6.954;2023-07-20T05:10:48;8.43;;;6.57;;
6269;SDS011;3168;51.684;6.954;2023-07-20T05:13:14;6.97;;;5.97;;
6269;SDS011;3168;51.684;6.954;2023-07-20T05:15:40;7.70;;;6.90;;
6269;SDS011;3168;51.684;6.954;2023-07-20T05:18:06;13.87;;;7.60;;
6269;SDS011;3168;51.684;6.954;2023-07-20T05:20:32;5.50;;;5.13;;
6269;SDS011;3168;51.684;6.954;2023-07-20T05:22:57;6.67;;;5.77;;
6269;SDS011;3168;51.684;6.954;2023-07-20T05:25:23;7.63;;;6.90;;
6269;SDS011;3168;51.684;6.954;2023-07-20T05:27:49;12.07;;;7.33;;
6269;SDS011;3168;51.684;6.954;2023-07-20T05:30:15;6.03;;;5.53;;
6269;SDS011;3168;51.684;6.954;2023-07-20T05:32:41;6.23;;;5.83;;
6269;SDS011;3168;51.684;6.954;2023-07-20T05:35:07;6.63;;;6.00;;
6269;SDS011;3168;51.684;6.954;2023-07-20T05:37:33;7.17;;;6.50;;
6269;SDS011;3168;51.684;6.954;2023-07-20T05:39:59;9.43;;;5.93;;
6269;SDS011;3168;51.684;6.954;2023-07-20T05:42:24;6.27;;;5.87;;
6269;SDS011;3168;51.684;6.954;2023-07-20T05:44:51;7.00;;;6.40;;
6269;SDS011;3168;51.684;6.954;2023-07-20T05:47:17;5.67;;;5.17;;
6269;SDS011;3168;51.684;6.954;2023-07-20T05:49:43;5.77;;;5.47;;
6269;SDS011;3168;51.684;6.954;2023-07-20T05:52:08;6.00;;;5.50;;
6269;SDS011;3168;51.684;6.954;2023-07-20T05:54:34;6.30;;;5.20;;
6269;SDS011;3168;51.684;6.954;2023-07-20T05:57:00;5.13;;;4.63;;
6269;SDS011;3168;51.684;6.954;2023-07-20T05:59:26;9.50;;;5.27;;
6269;SDS011;3168;51.684;6.954;2023-07-20T06:01:52;9.43;;;5.00;;
6269;SDS011;3168;51.684;6.954;2023-07-20T06:04:17;8.23;;;5.47;;
6269;SDS011;3168;51.684;6.954;2023-07-20T06:06:43;5.07;;;4.07;;
6269;SDS011;3168;51.684;6.954;2023-07-20T06:09:09;6.20;;;5.70;;
6269;SDS011;3168;51.684;6.954;2023-07-20T06:11:35;4.73;;;4.50;;
6269;SDS011;3168;51.684;6.954;2023-07-20T06:14:01;5.70;;;5.20;;
6269;SDS011;3168;51.684;6.954;2023-07-20T06:16:26;6.10;;;5.70;;
6269;SDS011;3168;51.684;6.954;2023-07-20T06:18:53;5.90;;;5.50;;
6269;SDS011;3168;51.684;6.954;2023-07-20T06:21:19;5.53;;;5.23;;
6269;SDS011;3168;51.684;6.954;2023-07-20T06:23:44;5.70;;;5.30;;
6269;SDS011;3168;51.684;6.954;2023-07-20T06:26:10;4.63;;;4.30;;
6269;SDS011;3168;51.684;6.954;2023-07-20T06:28:36;4.53;;;4.30;;
6269;SDS011;3168;51.684;6.954;2023-07-20T06:31:02;4.47;;;4.07;;
6269;SDS011;3168;51.684;6.954;2023-07-20T06:33:28;4.80;;;4.60;;
6269;SDS011;3168;51.684;6.954;2023-07-20T06:35:54;4.50;;;4.30;;
6269;SDS011;3168;51.684;6.954;2023-07-20T06:38:20;4.50;;;4.23;;
6269;SDS011;3168;51.684;6.954;2023-07-20T06:40:46;5.30;;;4.90;;
6269;SDS011;3168;51.684;6.954;2023-07-20T06:43:12;5.40;;;4.60;;
6269;SDS011;3168;51.684;6.954;2023-07-20T06:45:38;11.03;;;5.63;;
6269;SDS011;3168;51.684;6.954;2023-07-20T06:48:03;7.50;;;5.47;;
6269;SDS011;3168;51.684;6.954;2023-07-20T06:50:29;3.97;;;3.77;;
6269;SDS011;3168;51.684;6.954;2023-07-20T06:52:55;4.23;;;4.13;;
6269;SDS011;3168;51.684;6.954;2023-07-20T06:55:21;3.33;;;3.23;;
6269;SDS011;3168;51.684;6.954;2023-07-20T06:57:47;4.00;;;3.90;;
6269;SDS011;3168;51.684;6.954;2023-07-20T07:00:13;4.80;;;4.60;;
6269;SDS011;3168;51.684;6.954;2023-07-20T07:02:39;3.00;;;2.90;;
6269;SDS011;3168;51.684;6.954;2023-07-20T07:05:05;3.03;;;2.83;;
6269;SDS011;3168;51.684;6.954;2023-07-20T07:07:31;3.40;;;3.30;;
6269;SDS011;3168;51.684;6.954;2023-07-20T07:09:58;2.73;;;2.63;;
6269;SDS011;3168;51.684;6.954;2023-07-20T07:12:23;3.63;;;3.37;;
6269;SDS011;3168;51.684;6.954;2023-07-20T07:14:49;3.37;;;3.20;;
6269;SDS011;3168;51.684;6.954;2023-07-20T07:17:15;3.80;;;3.60;;
6269;SDS011;3168;51.684;6.954;2023-07-20T07:19:41;4.77;;;4.40;;
6269;SDS011;3168;51.684;6.954;2023-07-20T07:22:06;3.50;;;3.30;;
6269;SDS011;3168;51.684;6.954;2023-07-20T07:24:32;3.30;;;3.20;;
6269;SDS011;3168;51.684;6.954;2023-07-20T07:26:58;3.53;;;3.40;;
6269;SDS011;3168;51.684;6.954;2023-07-20T07:29:24;2.43;;;2.33;;
6269;SDS011;3168;51.684;6.954;2023-07-20T07:31:49;3.50;;;3.30;;
6269;SDS011;3168;51.684;6.954;2023-07-20T07:34:15;2.80;;;2.70;;
6269;SDS011;3168;51.684;6.954;2023-07-20T07:36:41;2.45;;;2.22;;
6269;SDS011;3168;51.684;6.954;2023-07-20T07:39:07;2.40;;;2.20;;
6269;SDS011;3168;51.684;6.954;2023-07-20T07:41:33;2.50;;;2.40;;
6269;SDS011;3168;51.684;6.954;2023-07-20T07:43:58;3.10;;;3.00;;
6269;SDS011;3168;51.684;6.954;2023-07-20T07:46:24;2.90;;;2.80;;
6269;SDS011;3168;51.684;6.954;2023-07-20T07:48:50;4.70;;;3.07;;
6269;SDS011;3168;51.684;6.954;2023-07-20T07:51:16;2.30;;;2.20;;
6269;SDS011;3168;51.684;6.954;2023-07-20T07:53:42;1.93;;;1.83;;
6269;SDS011;3168;51.684;6.954;2023-07-20T07:56:08;2.30;;;2.20;;
6269;SDS011;3168;51.684;6.954;2023-07-20T07:58:33;1.40;;;1.40;;
6269;SDS011;3168;51.684;6.954;2023-07-20T08:01:00;1.30;;;1.30;;
6269;SDS011;3168;51.684;6.954;2023-07-20T08:03:26;1.60;;;1.60;;
6269;SDS011;3168;51.684;6.954;2023-07-20T08:05:53;2.17;;;2.07;;
6269;SDS011;3168;51.684;6.954;2023-07-20T08:08:19;1.77;;;1.77;;
6269;SDS011;3168;51.684;6.954;2023-07-20T08:10:45;1.43;;;1.43;;
6269;SDS011;3168;51.684;6.954;2023-07-20T08:13:11;0.97;;;0.97;;
6269;SDS011;3168;51.684;6.954;2023-07-20T08:15:37;2.10;;;1.73;;
6269;SDS011;3168;51.684;6.954;2023-07-20T08:18:03;1.87;;;1.10;;
6269;SDS011;3168;51.684;6.954;2023-07-20T08:20:29;1.27;;;1.23;;
6269;SDS011;3168;51.684;6.954;2023-07-20T08:22:55;1.07;;;1.07;;
6269;SDS011;3168;51.684;6.954;2023-07-20T08:25:20;1.00;;;1.00;;
6269;SDS011;3168;51.684;6.954;2023-07-20T08:27:46;4.57;;;1.23;;
6269;SDS011;3168;51.684;6.954;2023-07-20T08:30:12;1.23;;;1.23;;
6269;SDS011;3168;51.684;6.954;2023-07-20T08:32:38;0.80;;;0.80;;
6269;SDS011;3168;51.684;6.954;2023-07-20T08:35:04;1.50;;;1.40;;
6269;SDS011;3168;51.684;6.954;2023-07-20T08:37:30;1.10;;;1.10;;
6269;SDS011;3168;51.684;6.954;2023-07-20T08:39:56;1.33;;;1.23;;
6269;SDS011;3168;51.684;6.954;2023-07-20T08:42:22;1.10;;;1.10;;
6269;SDS011;3168;51.684;6.954;2023-07-20T08:44:47;0.90;;;0.90;;
6269;SDS011;3168;51.684;6.954;2023-07-20T08:47:13;1.10;;;1.10;;
6269;SDS011;3168;51.684;6.954;2023-07-20T08:49:40;1.53;;;1.43;;
6269;SDS011;3168;51.684;6.954;2023-07-20T08:52:06;1.07;;;0.90;;
6269;SDS011;3168;51.684;6.954;2023-07-20T08:54:32;1.63;;;1.03;;
6269;SDS011;3168;51.684;6.954;2023-07-20T08:57:01;1.10;;;1.10;;
6269;SDS011;3168;51.684;6.954;2023-07-20T08:59:26;0.70;;;0.70;;
6269;SDS011;3168;51.684;6.954;2023-07-20T09:01:52;1.00;;;1.00;;
6269;SDS011;3168;51.684;6.954;2023-07-20T09:04:18;0.90;;;0.90;;
6269;SDS011;3168;51.684;6.954;2023-07-20T09:06:44;1.00;;;1.00;;
6269;SDS011;3168;51.684;6.954;2023-07-20T09:09:09;0.73;;;0.73;;
6269;SDS011;3168;51.684;6.954;2023-07-20T09:11:35;1.23;;;0.80;;
6269;SDS011;3168;51.684;6.954;2023-07-20T09:14:05;0.97;;;0.97;;
6269;SDS011;3168;51.684;6.954;2023-07-20T09:16:31;0.90;;;0.90;;
6269;SDS011;3168;51.684;6.954;2023-07-20T09:18:58;0.87;;;0.87;;
6269;SDS011;3168;51.684;6.954;2023-07-20T09:21:23;1.03;;;1.03;;
6269;SDS011;3168;51.684;6.954;2023-07-20T09:23:49;1.00;;;1.00;;
6269;SDS011;3168;51.684;6.954;2023-07-20T09:26:15;0.60;;;0.60;;
6269;SDS011;3168;51.684;6.954;2023-07-20T09:28:41;0.80;;;0.80;;
6269;SDS011;3168;51.684;6.954;2023-07-20T09:31:15;0.87;;;0.80;;
6269;SDS011;3168;51.684;6.954;2023-07-20T09:33:32;0.70;;;0.70;;
6269;SDS011;3168;51.684;6.954;2023-07-20T09:36:02;0.70;;;0.70;;
6269;SDS011;3168;51.684;6.954;2023-07-20T09:38:28;0.80;;;0.80;;
6269;SDS011;3168;51.684;6.954;2023-07-20T09:40:53;0.90;;;0.90;;
6269;SDS011;3168;51.684;6.954;2023-07-20T09:43:19;0.80;;;0.80;;
6269;SDS011;3168;51.684;6.954;2023-07-20T09:45:46;1.23;;;0.80;;
6269;SDS011;3168;51.684;6.954;2023-07-20T09:48:12;0.80;;;0.80;;
6269;SDS011;3168;51.684;6.954;2023-07-20T09:50:40;0.63;;;0.63;;
6269;SDS011;3168;51.684;6.954;2023-07-20T09:53:05;1.27;;;0.97;;
6269;SDS011;3168;51.684;6.954;2023-07-20T09:55:32;0.63;;;0.63;;
6269;SDS011;3168;51.684;6.954;2023-07-20T09:57:58;0.80;;;0.80;;
6269;SDS011;3168;51.684;6.954;2023-07-20T10:00:24;0.73;;;0.73;;
6269;SDS011;3168;51.684;6.954;2023-07-20T10:02:50;0.70;;;0.70;;
6269;SDS011;3168;51.684;6.954;2023-07-20T10:05:16;0.70;;;0.70;;
6269;SDS011;3168;51.684;6.954;2023-07-20T10:07:44;1.10;;;1.10;;
6269;SDS011;3168;51.684;6.954;2023-07-20T10:10:08;0.80;;;0.80;;
6269;SDS011;3168;51.684;6.954;2023-07-20T10:12:34;0.80;;;0.80;;
6269;SDS011;3168;51.684;6.954;2023-07-20T10:17:47;0.97;;;0.97;;
6269;SDS011;3168;51.684;6.954;2023-07-20T10:20:16;1.23;;;1.23;;
6269;SDS011;3168;51.684;6.954;2023-07-20T10:22:41;1.83;;;0.90;;
6269;SDS011;3168;51.684;6.954;2023-07-20T10:25:07;0.67;;;0.67;;
6269;SDS011;3168;51.684;6.954;2023-07-20T10:27:33;1.20;;;1.10;;
6269;SDS011;3168;51.684;6.954;2023-07-20T10:29:59;0.90;;;0.90;;
6269;SDS011;3168;51.684;6.954;2023-07-20T10:32:25;1.00;;;0.80;;
6269;SDS011;3168;51.684;6.954;2023-07-20T10:34:51;1.60;;;1.00;;
6269;SDS011;3168;51.684;6.954;2023-07-20T10:37:54;1.07;;;0.97;;
6269;SDS011;3168;51.684;6.954;2023-07-20T10:40:25;2.10;;;1.30;;
6269;SDS011;3168;51.684;6.954;2023-07-20T10:42:57;0.80;;;0.80;;
6269;SDS011;3168;51.684;6.954;2023-07-20T10:48:03;1.77;;;0.80;;
6269;SDS011;3168;51.684;6.954;2023-07-20T10:50:28;2.60;;;1.30;;
6269;SDS011;3168;51.684;6.954;2023-07-20T10:53:10;0.80;;;0.80;;
6269;SDS011;3168;51.684;6.954;2023-07-20T10:55:35;0.80;;;0.80;;
6269;SDS011;3168;51.684;6.954;2023-07-20T10:58:06;0.70;;;0.70;;
6269;SDS011;3168;51.684;6.954;2023-07-20T11:00:32;0.70;;;0.70;;
6269;SDS011;3168;51.684;6.954;2023-07-20T11:02:58;5.50;;;0.80;;
6269;SDS011;3168;51.684;6.954;2023-07-20T11:08:09;0.80;;;0.80;;
6269;SDS011;3168;51.684;6.954;2023-07-20T11:10:39;0.97;;;0.90;;
6269;SDS011;3168;51.684;6.954;2023-07-20T11:15:46;0.80;;;0.80;;
6269;SDS011;3168;51.684;6.954;2023-07-20T11:18:12;2.00;;;0.80;;
6269;SDS011;3168;51.684;6.954;2023-07-20T11:20:38;1.43;;;0.80;;
6269;SDS011;3168;51.684;6.954;2023-07-20T11:23:04;1.13;;;0.80;;
6269;SDS011;3168;51.684;6.954;2023-07-20T11:25:36;0.70;;;0.70;;
6269;SDS011;3168;51.684;6.954;2023-07-20T11:28:01;0.87;;;0.87;;
6269;SDS011;3168;51.684;6.954;2023-07-20T11:30:28;0.70;;;0.70;;
6269;SDS011;3168;51.684;6.954;2023-07-20T11:32:53;0.70;;;0.70;;
6269;SDS011;3168;51.684;6.954;2023-07-20T11:35:18;0.70;;;0.70;;
6269;SDS011;3168;51.684;6.954;2023-07-20T11:37:44;0.80;;;0.80;;
6269;SDS011;3168;51.684;6.954;2023-07-20T11:40:10;0.77;;;0.77;;
6269;SDS011;3168;51.684;6.954;2023-07-20T11:42:36;0.70;;;0.70;;
6269;SDS011;3168;51.684;6.954;2023-07-20T11:45:03;0.70;;;0.70;;
6269;SDS011;3168;51.684;6.954;2023-07-20T11:47:28;0.80;;;0.80;;
6269;SDS011;3168;51.684;6.954;2023-07-20T11:49:54;0.67;;;0.67;;
6269;SDS011;3168;51.684;6.954;2023-07-20T11:52:20;0.80;;;0.70;;
6269;SDS011;3168;51.684;6.954;2023-07-20T11:54:46;1.27;;;1.27;;
6269;SDS011;3168;51.684;6.954;2023-07-20T11:57:15;0.80;;;0.80;;
6269;SDS011;3168;51.684;6.954;2023-07-20T12:02:19;0.60;;;0.60;;
6269;SDS011;3168;51.684;6.954;2023-07-20T12:04:45;0.80;;;0.80;;
6269;SDS011;3168;51.684;6.954;2023-07-20T12:07:11;0.70;;;0.70;;
6269;SDS011;3168;51.684;6.954;2023-07-20T12:09:37;0.80;;;0.80;;
6269;SDS011;3168;51.684;6.954;2023-07-20T12:12:08;0.70;;;0.70;;
6269;SDS011;3168;51.684;6.954;2023-07-20T12:14:29;0.80;;;0.80;;
6269;SDS011;3168;51.684;6.954;2023-07-20T12:16:55;0.70;;;0.70;;
6269;SDS011;3168;51.684;6.954;2023-07-20T12:19:24;0.83;;;0.83;;
6269;SDS011;3168;51.684;6.954;2023-07-20T12:21:47;0.80;;;0.80;;
6269;SDS011;3168;51.684;6.954;2023-07-20T12:24:13;0.83;;;0.83;;
6269;SDS011;3168;51.684;6.954;2023-07-20T12:26:39;0.80;;;0.80;;
6269;SDS011;3168;51.684;6.954;2023-07-20T12:29:04;0.87;;;0.87;;
6269;SDS011;3168;51.684;6.954;2023-07-20T12:31:33;0.77;;;0.77;;
6269;SDS011;3168;51.684;6.954;2023-07-20T12:33:57;0.80;;;0.80;;
6269;SDS011;3168;51.684;6.954;2023-07-20T12:36:22;0.60;;;0.60;;
6269;SDS011;3168;51.684;6.954;2023-07-20T12:38:48;1.23;;;0.80;;
6269;SDS011;3168;51.684;6.954;2023-07-20T12:41:14;0.97;;;0.97;;
6269;SDS011;3168;51.684;6.954;2023-07-20T12:43:41;0.70;;;0.70;;
6269;SDS011;3168;51.684;6.954;2023-07-20T12:46:08;0.70;;;0.70;;
6269;SDS011;3168;51.684;6.954;2023-07-20T12:48:33;0.67;;;0.67;;
6269;SDS011;3168;51.684;6.954;2023-07-20T12:50:59;0.70;;;0.70;;
6269;SDS011;3168;51.684;6.954;2023-07-20T12:53:25;9.93;;;0.87;;
6269;SDS011;3168;51.684;6.954;2023-07-20T12:55:51;0.83;;;0.83;;
6269;SDS011;3168;51.684;6.954;2023-07-20T12:58:17;0.70;;;0.70;;
6269;SDS011;3168;51.684;6.954;2023-07-20T13:00:44;0.80;;;0.80;;
6269;SDS011;3168;51.684;6.954;2023-07-20T13:03:09;1.00;;;1.00;;
6269;SDS011;3168;51.684;6.954;2023-07-20T13:05:35;0.70;;;0.70;;
6269;SDS011;3168;51.684;6.954;2023-07-20T13:08:01;1.43;;;0.80;;
6269;SDS011;3168;51.684;6.954;2023-07-20T13:10:28;11.00;;;0.90;;
6269;SDS011;3168;51.684;6.954;2023-07-20T13:12:54;2.60;;;0.77;;
6269;SDS011;3168;51.684;6.954;2023-07-20T13:15:20;0.80;;;0.80;;
6269;SDS011;3168;51.684;6.954;2023-07-20T13:17:46;0.60;;;0.60;;
6269;SDS011;3168;51.684;6.954;2023-07-20T13:20:13;2.10;;;0.80;;
6269;SDS011;3168;51.684;6.954;2023-07-20T13:22:39;0.90;;;0.90;;
6269;SDS011;3168;51.684;6.954;2023-07-20T13:25:05;0.80;;;0.80;;
6269;SDS011;3168;51.684;6.954;2023-07-20T13:27:32;0.70;;;0.70;;
6269;SDS011;3168;51.684;6.954;2023-07-20T13:29:58;0.77;;;0.77;;
6269;SDS011;3168;51.684;6.954;2023-07-20T13:32:24;0.77;;;0.77;;
6269;SDS011;3168;51.684;6.954;2023-07-20T13:34:49;0.70;;;0.70;;
6269;SDS011;3168;51.684;6.954;2023-07-20T13:37:17;0.60;;;0.60;;
6269;SDS011;3168;51.684;6.954;2023-07-20T13:39:43;0.67;;;0.67;;
6269;SDS011;3168;51.684;6.954;2023-07-20T13:42:09;1.33;;;1.23;;
6269;SDS011;3168;51.684;6.954;2023-07-20T13:44:35;3.13;;;0.80;;
6269;SDS011;3168;51.684;6.954;2023-07-20T13:47:01;0.93;;;0.93;;
6269;SDS011;3168;51.684;6.954;2023-07-20T13:49:26;0.70;;;0.70;;
6269;SDS011;3168;51.684;6.954;2023-07-20T13:51:52;0.83;;;0.83;;
6269;SDS011;3168;51.684;6.954;2023-07-20T13:54:18;0.70;;;0.70;;
6269;SDS011;3168;51.684;6.954;2023-07-20T13:56:44;0.90;;;0.90;;
6269;SDS011;3168;51.684;6.954;2023-07-20T13:59:10;1.00;;;1.00;;
6269;SDS011;3168;51.684;6.954;2023-07-20T14:01:35;1.60;;;0.80;;
6269;SDS011;3168;51.684;6.954;2023-07-20T14:04:02;0.80;;;0.80;;
6269;SDS011;3168;51.684;6.954;2023-07-20T14:06:29;1.17;;;1.17;;
6269;SDS011;3168;51.684;6.954;2023-07-20T14:08:55;0.60;;;0.60;;
6269;SDS011;3168;51.684;6.954;2023-07-20T14:11:20;0.80;;;0.80;;
6269;SDS011;3168;51.684;6.954;2023-07-20T14:13:46;0.93;;;0.93;;
6269;SDS011;3168;51.684;6.954;2023-07-20T14:16:12;0.90;;;0.90;;
6269;SDS011;3168;51.684;6.954;2023-07-20T14:18:38;0.80;;;0.80;;
6269;SDS011;3168;51.684;6.954;2023-07-20T14:21:04;0.57;;;0.57;;
6269;SDS011;3168;51.684;6.954;2023-07-20T14:23:30;1.13;;;0.80;;
6269;SDS011;3168;51.684;6.954;2023-07-20T14:25:55;1.60;;;0.70;;
6269;SDS011;3168;51.684;6.954;2023-07-20T14:28:21;0.70;;;0.70;;
6269;SDS011;3168;51.684;6.954;2023-07-20T14:30:47;0.80;;;0.80;;
6269;SDS011;3168;51.684;6.954;2023-07-20T14:33:13;0.70;;;0.70;;
6269;SDS011;3168;51.684;6.954;2023-07-20T14:35:39;0.77;;;0.77;;
6269;SDS011;3168;51.684;6.954;2023-07-20T14:38:04;0.80;;;0.80;;
6269;SDS011;3168;51.684;6.954;2023-07-20T14:40:30;0.90;;;0.90;;
6269;SDS011;3168;51.684;6.954;2023-07-20T14:42:56;0.70;;;0.70;;
6269;SDS011;3168;51.684;6.954;2023-07-20T14:45:22;0.60;;;0.60;;
6269;SDS011;3168;51.684;6.954;2023-07-20T14:47:48;14.00;;;1.07;;
6269;SDS011;3168;51.684;6.954;2023-07-20T14:50:15;0.80;;;0.80;;
6269;SDS011;3168;51.684;6.954;2023-07-20T14:52:40;0.60;;;0.60;;
6269;SDS011;3168;51.684;6.954;2023-07-20T14:55:06;0.67;;;0.67;;
6269;SDS011;3168;51.684;6.954;2023-07-20T14:57:32;0.70;;;0.70;;
6269;SDS011;3168;51.684;6.954;2023-07-20T14:59:58;8.50;;;0.70;;
6269;SDS011;3168;51.684;6.954;2023-07-20T15:02:24;0.70;;;0.70;;
6269;SDS011;3168;51.684;6.954;2023-07-20T15:04:50;0.50;;;0.50;;
6269;SDS011;3168;51.684;6.954;2023-07-20T15:07:16;0.70;;;0.70;;
6269;SDS011;3168;51.684;6.954;2023-07-20T15:09:42;0.90;;;0.90;;
6269;SDS011;3168;51.684;6.954;2023-07-20T15:12:08;0.70;;;0.70;;
6269;SDS011;3168;51.684;6.954;2023-07-20T15:14:35;0.73;;;0.73;;
6269;SDS011;3168;51.684;6.954;2023-07-20T15:17:01;0.73;;;0.73;;
6269;SDS011;3168;51.684;6.954;2023-07-20T15:19:28;0.83;;;0.83;;
6269;SDS011;3168;51.684;6.954;2023-07-20T15:21:52;0.80;;;0.80;;
6269;SDS011;3168;51.684;6.954;2023-07-20T15:24:18;0.70;;;0.70;;
6269;SDS011;3168;51.684;6.954;2023-07-20T15:26:44;0.70;;;0.70;;
6269;SDS011;3168;51.684;6.954;2023-07-20T15:29:10;0.80;;;0.80;;